Terminal Aerodrome Forecast
Issued by NWS

Home | Current Version | Previous Version | Text Only | Print | Product List | Glossary On
Versions: 1 2 3 4 5 6 7 8 9 10 11 12 13 14 15 16 17 18
000
FTUS43 KDTX 290520
TAFMBS
TAF
KMBS 290520Z 2906/3006 12005KT P6SM SCT250
     FM291300 16007KT P6SM SCT080
     FM291900 18013KT P6SM BKN050
     FM300100 18010KT P6SM OVC050 PROB30 3002/3006 3SM SHRA OVC030=

USA.gov is the U.S. government's official web portal to all federal, state and local government web resources and services.